Skip Navigation Links
NOAA logo - Click to go to the NOAA homepage
NOAA's National Weather Service
Alaska Aviation Weather Unit
  NWS logo - Click to go to the NWS homepage
Left Navbar Graphic     19 AKDT = 03 GMT

   
NOAA is celebrating 200 years of science, service, and stewardship. Visit the NOAA 200th celebration Web site to learn more.
USA.gov is the U.S. Government's official Web portal to all Federal, state and local government Web resources and services.
Facebook
NWS on Facebook

Important Change Regarding the AAWU Web Presence

 

Over the last several months, the AAWU has been working to navigate its webpages to a nationally supported server. Security, as well as other needs, have necessitated the change.  In the process, we have made an effort to enhance the functionality of our website, as well as some of our products. As of June 20, 2017, aawu.arh.noaa.gov will be discontinued. The new AAWU web address is weather.gov/aawu. It is now live and will run in-parallel with the old site until it is discontinued. Please send any feedback or questions regarding the new webpages to nws.ar.aawu.webauthors@noaa.gov.  Thank you for your patience during this time of transition.
AAWU Home :: Display TAF Add Bookmark
METAR PAWD 242153Z AUTO 20016KT 7SM -RA OVC037 08/07 A3001 RMK AO2
     SLP161 P0005 T00830067 TSNO=

METAR PAWD 242253Z AUTO 20015KT 9SM -RA SCT030 OVC036 08/08 A3000
 RMK AO2 SLP158 P0002 T00830078 TSNO=

METAR PAWD 242353Z AUTO 21013KT 7SM -RA FEW024 OVC032 08/08 A2999 RMK
     AO2 SLP155 P0002 60016 T00830078 10089 20083 58008 TSNO=

SPECI PAWD 250009Z AUTO 20016G19KT 4SM -RA BR FEW009 BKN024 OVC030 08/08
     A2998 RMK AO2 P0000 T00830078 TSNO=

SPECI PAWD 250020Z AUTO 20015KT 4SM -RA BR SCT024 BKN029 OVC036 08/08
     A2998 RMK AO2 P0000 T00830078 TSNO=

METAR PAWD 250053Z AUTO 20014KT 6SM -RA BR BKN041 OVC050 08/08 A2998
 RMK AO2 SLP153 P0000 T00830078 TSNO=

METAR PAWD 250153Z AUTO 20013KT 8SM -RA OVC041 08/08 A2998 RMK AO2
     SLP152 P0000 T00830078 TSNO=

METAR PAWD 250253Z AUTO 19010KT 10SM OVC031 08/07 A2997 RMK AO2
 RAE32 SLP150 P0000 60000 T00830072 58005 TSNO=


NOAA's National Weather Service
Alaska Aviation Weather Unit
6930 Sand Lake Road
Anchorage, AK 99502-1845
Disclaimer
Credits
Glossary
Privacy Policy
About Us
Career Opportunities
Contact AAWU Internet Services Site last modified: April, 17th 2012